Kincheloe, Michigan
Current Conditions -  °F | °C
As of 6:15 PM on Tuesday 25 Nov 2014 (Local Time) from KCIU Reporting Station
Overcast Overcast  
Wind Chill: 15°   Ceiling: 4000
Heat Index: 25°   Visibility: 10mi
Dew Point: 23°   Wind: 9mph
Humidity: 93%   Direction: 270°W
Pressure: 30.01"   Gusts: NA
Location:  46.15°N, 84.28°W
Report Text: KCIU 252315Z AUTO 27008KT 10SM OVC040 M04/M05 A3001 RMK AO1
Loading
Personal Weather Stations






























Interactive Weather Map New forecast layout! Learn more

10-Day Weather Forecast

Advertisements
Track Severe Weather on mobile